WetterOnline ( https://www.wetteronline.de )

Wetter aktuell Etgert

Aktuelles Wetter: Deuselbach (483m)

6-stündlich | Neueste Meldungen
Ortszeit Temperatur Wetter
Do, 18.04. 14:00 5.1° C bedeckt
Do, 18.04. 8:00 0.4° C Regen
Do, 18.04. 2:00 1.2° C leichter Schneeregen
Mi, 17.04. 20:00 3.5° C bewölkt
Mi, 17.04. 14:00 5.2° C bewölkt
Mi, 17.04. 8:00 2.7° C bedeckt
Mi, 17.04. 2:00 3.4° C leichter Regen
Di, 16.04. 20:00 6.0° C bewölkt
Ortszeit Temperatur Wetter
Do, 18.04. 19:00 8.0° C leicht bewölkt
Do, 18.04. 18:40 8.4° C leicht bewölkt
Do, 18.04. 18:30 8.2° C leicht bewölkt
Do, 18.04. 18:20 8.2° C leicht bewölkt
Do, 18.04. 18:10 7.5° C bewölkt
Do, 18.04. 18:00 7.6° C wolkig
Do, 18.04. 17:50 7.6° C wolkig
Do, 18.04. 17:30 7.2° C bewölkt
Do, 18.04. 17:00 7.5° C bedeckt
Do, 18.04. 16:30 7.8° C wolkig
Do, 18.04. 16:00 7.0° C bewölkt
Ortszeit Relative Feuchte Sichtweite
Do, 18.04. 14:00 80% 23 km
Do, 18.04. 8:00 95% 20 km
Do, 18.04. 2:00 95% 9 km
Mi, 17.04. 20:00 80% >70 km
Mi, 17.04. 14:00 73% >70 km
Mi, 17.04. 8:00 92% 18 km
Mi, 17.04. 2:00 94% 30 km
Di, 16.04. 20:00 82% >70 km
Ortszeit Relative Feuchte Sichtweite
Do, 18.04. 19:00 54% 55 km
Do, 18.04. 18:40 56% -
Do, 18.04. 18:30 56% >70 km
Do, 18.04. 18:20 56% -
Do, 18.04. 18:10 63% -
Do, 18.04. 18:00 64% 60 km
Do, 18.04. 17:50 64% -
Do, 18.04. 17:30 66% 40 km
Do, 18.04. 17:00 60% >70 km
Do, 18.04. 16:30 65% 55 km
Do, 18.04. 16:00 70% 40 km
Ortszeit Niederschlagsmenge Niederschlagsart
Do, 18.04. 14:00 0.1 l/m2 in 6 Std. Regen
Do, 18.04. 8:00 5 l/m2 in 12 Std. Schnee, Regen
Do, 18.04. 2:00 0.6 l/m2 in 6 Std. Schnee, Regen
Mi, 17.04. 20:00 2 l/m2 in 12 Std. Regen
Mi, 17.04. 14:00 0.1 l/m2 in 6 Std. Regen
Mi, 17.04. 8:00 5 l/m2 in 12 Std. Regen
Mi, 17.04. 2:00 2 l/m2 in 6 Std. Regen
Di, 16.04. 20:00 3 l/m2 in 12 Std. Regen
Ortszeit Niederschlagsmenge Niederschlagsart
Do, 18.04. 19:00 0.0 l/m2 in 1 Std. -
Do, 18.04. 18:40 keine Meldung -
Do, 18.04. 18:30 0.0 l/m2 in 30 Min -
Do, 18.04. 18:20 keine Meldung -
Do, 18.04. 18:10 keine Meldung -
Do, 18.04. 18:00 0.0 l/m2 in 1 Std. -
Do, 18.04. 17:50 keine Meldung -
Do, 18.04. 17:30 0.0 l/m2 in 30 Min -
Do, 18.04. 17:00 0.0 l/m2 in 1 Std. Regen
Do, 18.04. 16:30 0.0 l/m2 in 30 Min -
Do, 18.04. 16:00 0.0 l/m2 in 1 Std. -
Ortszeit Stärke Spitze Richtung
km/h Bft. km/h Grad Sektor
Do, 18.04. 14:00 9 2 22 10° N
Do, 18.04. 8:00 4 1 11 30° NO
Do, 18.04. 2:00 7 2 19 70° O
Mi, 17.04. 20:00 6 1 33 260° W
Mi, 17.04. 14:00 14 3 29 310° NW
Mi, 17.04. 8:00 9 2 24 310° NW
Mi, 17.04. 2:00 7 2 40 340° N
Di, 16.04. 20:00 25 4 58 280° W
Ortszeit Stärke Spitze Richtung
km/h Bft. km/h Grad Sektor
Do, 18.04. 19:00 14 3 25 300° NW
Do, 18.04. 18:40 14 3 - 330° NW
Do, 18.04. 18:30 14 3 25 300° NW
Do, 18.04. 18:20 14 3 - 300° NW
Do, 18.04. 18:10 13 3 - 300° NW
Do, 18.04. 18:00 13 3 28 300° NW
Do, 18.04. 17:50 13 3 - 300° NW
Do, 18.04. 17:30 18 3 29 290° W
Do, 18.04. 17:00 17 3 28 330° NW
Do, 18.04. 16:30 14 3 29 20° N
Do, 18.04. 16:00 15 3 31 360° N
Ortszeit Untergrenze Bedeckung Gattung
total tief tief mittel hoch
Do, 18.04. 14:00 300 m 8/8 8/8 - - -
Do, 18.04. 8:00 90 m 8/8 8/8 - - -
Do, 18.04. 2:00 120 m 7/8 7/8 - - -
Mi, 17.04. 20:00 4800 m 7/8 7/8 - - -
Mi, 17.04. 14:00 480 m 7/8 7/8 - - -
Mi, 17.04. 8:00 180 m 8/8 8/8 - - -
Mi, 17.04. 2:00 270 m 7/8 7/8 - - -
Di, 16.04. 20:00 570 m 7/8 7/8 - - -
Ortszeit Bedeckungsgrad in Achtel und Wolkenuntergrenze
Do, 18.04. 19:00 1(1290m)
Do, 18.04. 18:40 4
Do, 18.04. 18:30 3(1500m) 4(8700m)
Do, 18.04. 18:20 3(1500m) 4(8700m)
Do, 18.04. 18:10 7
Do, 18.04. 18:00 3(1500m) 6(7500m) 7(8700m)
Do, 18.04. 17:50 3(1500m) 6(7500m) 7(8700m)
Do, 18.04. 17:30 2(1050m) 3(1260m) 7(1800m)
Do, 18.04. 17:00 8(1800m)
Do, 18.04. 16:30 1(690m) 3(840m) 6(1800m)
Do, 18.04. 16:00 2(690m) 7(1500m)
Ortszeit Luftdruck NN (hPa) Tendenz (hPa in 3 Std.)
Do, 18.04. 14:00 1020 + 1,5
Do, 18.04. 8:00 1017 + 2,2
Do, 18.04. 2:00 1014 + 0,8
Mi, 17.04. 20:00 1012 + 0,5
Mi, 17.04. 14:00 1012 - 0,8
Mi, 17.04. 8:00 1013 + 1,4
Mi, 17.04. 2:00 1011 + 0,9
Di, 16.04. 20:00 1008 + 0,6
Ortszeit Luftdruck NN (hPa) Tendenz (hPa in 3 Std.)
Do, 18.04. 19:00 1020 + 0,2
Do, 18.04. 18:40 1020 keine Meldung
Do, 18.04. 18:30 1020 + 0,1
Do, 18.04. 18:20 1020 keine Meldung
Do, 18.04. 18:10 1020 keine Meldung
Do, 18.04. 18:00 1020 0,0
Do, 18.04. 17:50 1020 keine Meldung
Do, 18.04. 17:30 1020 + 0,1
Do, 18.04. 17:00 1020 + 0,1
Do, 18.04. 16:30 1020 + 0,2
Do, 18.04. 16:00 1020 + 0,4
Ortszeit Schneehöhe (cm)
Do, 18.04. 14:00 -
Do, 18.04. 8:00 0
Do, 18.04. 2:00 0
Mi, 17.04. 20:00 0
Mi, 17.04. 14:00 0
Mi, 17.04. 8:00 0
Mi, 17.04. 2:00 0
Di, 16.04. 20:00 0
Ortszeit Schneehöhe (cm)
Do, 18.04. 19:00 -
Do, 18.04. 18:40 -
Do, 18.04. 18:30 -
Do, 18.04. 18:20 -
Do, 18.04. 18:10 -
Do, 18.04. 18:00 -
Do, 18.04. 17:50 -
Do, 18.04. 17:30 -
Do, 18.04. 17:00 -
Do, 18.04. 16:30 -
Do, 18.04. 16:00 -
Link zu dieser Seite / Seite empfehlen

Das Wetter in ...